Time;durP1;ratioP1;P1;durP2;ratioP2;P2;SDS_P1;SDS_P2;PMS_P1;PMS_P2;Temp;Humidity;BMP_temperature;BMP_pressure;BME280_temperature;BME280_humidity;BME280_pressure;Samples;Min_cycle;Max_cycle;Signal;HPM_P1;HPM_P2
2021/12/04 00:00:00;;;;;;;;;;;4.30;99.90;;;;;;5103108;28;19947;-95
2021/12/04 00:02:26;;;;;;;;;;;4.30;99.90;;;;;;5109474;22;19935;-91
2021/12/04 00:04:54;;;;;;;;;;;4.20;99.90;;;;;;5088761;28;19912;-96
2021/12/04 00:07:22;;;;;;;;;;;4.20;99.90;;;;;;5069961;28;19919;-96
2021/12/04 00:09:50;;;;;;;;;;;4.30;99.90;;;;;;5063111;28;19947;-92
2021/12/04 00:12:17;;;;;;;;;;;4.30;99.90;;;;;;5065054;28;19920;-89
2021/12/04 00:14:43;;;;;;;;;;;4.30;99.90;;;;;;5081387;28;20303;-94
2021/12/04 00:17:10;;;;;;;;;;;4.30;99.90;;;;;;5088382;28;20011;-94
2021/12/04 00:19:35;;;;;;;;;;;4.30;99.90;;;;;;5080311;28;19948;-81
2021/12/04 00:22:01;;;;;;;;;;;4.30;99.90;;;;;;5079002;22;19970;-96
2021/12/04 00:24:27;;;;;;;;;;;4.30;99.90;;;;;;5081719;28;20422;-92
2021/12/04 00:26:53;;;;;;;;;;;4.30;99.90;;;;;;5070423;28;19919;-96
2021/12/04 00:29:19;;;;;;;;;;;4.30;99.90;;;;;;5076421;28;19916;-93
2021/12/04 00:31:49;;;;;;;;;;;4.30;99.90;;;;;;5088641;22;19931;-86
2021/12/04 00:34:17;;;;;;;;;;;4.30;99.90;;;;;;5100632;28;20313;-94
2021/12/04 00:37:10;;;;;;;;;;;4.30;99.90;;;;;;5090432;22;19931;-94
2021/12/04 00:50:26;;;;;;;;;;;4.30;99.90;;;;;;5100170;28;19919;-94
2021/12/04 00:52:51;;;;;;;;;;;4.30;99.90;;;;;;5100349;28;19908;-92
2021/12/04 00:55:17;;;;;;;;;;;4.30;99.90;;;;;;5086496;28;19989;-82
2021/12/04 00:57:42;;;;;;;;;;;4.40;99.90;;;;;;5076999;28;20221;-95
2021/12/04 01:00:09;;;;;;;;;;;4.40;99.90;;;;;;5079989;28;19965;-87
2021/12/04 01:02:34;;;;;;;;;;;4.40;99.90;;;;;;5062482;28;19917;-87
2021/12/04 01:05:00;;;;;;;;;;;4.40;99.90;;;;;;5090488;28;19916;-80
2021/12/04 01:07:26;;;;;;;;;;;4.40;99.90;;;;;;5072353;28;19919;-88
2021/12/04 01:09:52;;;;;;;;;;;4.40;99.90;;;;;;5072131;28;19951;-95
2021/12/04 01:12:17;;;;;;;;;;;4.40;99.90;;;;;;5070245;28;19918;-91
2021/12/04 01:14:43;;;;;;;;;;;4.40;99.90;;;;;;5070297;28;19916;-94
2021/12/04 01:17:09;;;;;;;;;;;4.40;99.90;;;;;;5070400;28;19916;-80
2021/12/04 01:19:36;;;;;;;;;;;4.50;99.90;;;;;;5094242;28;19923;-82
2021/12/04 01:22:03;;;;;;;;;;;4.50;99.90;;;;;;5066084;28;19912;-95
2021/12/04 01:24:28;;;;;;;;;;;4.40;99.90;;;;;;5072082;28;20207;-95
2021/12/04 01:26:54;;;;;;;;;;;4.40;99.90;;;;;;5096505;28;19968;-94
2021/12/04 01:29:20;;;;;;;;;;;4.40;99.90;;;;;;5081870;28;20006;-88
2021/12/04 01:31:45;;;;;;;;;;;4.40;99.90;;;;;;5102496;28;20452;-80
2021/12/04 01:34:11;;;;;;;;;;;4.40;99.90;;;;;;5086147;28;19994;-96
2021/12/04 01:36:37;;;;;;;;;;;4.50;99.90;;;;;;5088685;28;19946;-91
2021/12/04 01:39:04;;;;;;;;;;;4.40;99.90;;;;;;5105342;28;19943;-95
2021/12/04 01:41:30;;;;;;;;;;;4.40;99.90;;;;;;5081101;28;19912;-88
2021/12/04 01:43:59;;;;;;;;;;;4.50;99.90;;;;;;5070700;28;19973;-94
2021/12/04 01:46:26;;;;;;;;;;;4.40;99.90;;;;;;5072085;28;19908;-96
2021/12/04 01:48:51;;;;;;;;;;;4.40;99.90;;;;;;5074583;28;19973;-93
2021/12/04 01:51:17;;;;;;;;;;;4.40;99.90;;;;;;5103979;27;19921;-88
2021/12/04 01:53:42;;;;;;;;;;;4.40;99.90;;;;;;5081043;28;19919;-95
2021/12/04 01:56:08;;;;;;;;;;;4.50;99.90;;;;;;5092098;28;19912;-93
2021/12/04 01:58:34;;;;;;;;;;;4.50;99.90;;;;;;5069985;28;19919;-94
2021/12/04 02:00:59;;;;;;;;;;;4.40;99.90;;;;;;5096371;28;19920;-96
2021/12/04 02:03:25;;;;;;;;;;;4.50;99.90;;;;;;5103310;28;20321;-94
2021/12/04 02:05:51;;;;;;;;;;;4.50;99.90;;;;;;5095545;28;19912;-92
2021/12/04 02:08:22;;;;;;;;;;;4.50;99.90;;;;;;5075222;28;19990;-83
2021/12/04 02:10:48;;;;;;;;;;;4.50;99.90;;;;;;5081169;28;19939;-83
2021/12/04 02:13:15;;;;;;;;;;;4.50;99.90;;;;;;5102247;28;19941;-83
2021/12/04 02:15:41;;;;;;;;;;;4.50;99.90;;;;;;5095555;28;19948;-94
2021/12/04 02:18:08;;;;;;;;;;;4.50;99.90;;;;;;5101985;28;19916;-80
2021/12/04 02:20:34;;;;;;;;;;;4.50;99.90;;;;;;5080110;28;20350;-95
2021/12/04 02:23:01;;;;;;;;;;;4.50;99.90;;;;;;5071633;28;19916;-81
2021/12/04 02:25:27;;;;;;;;;;;4.50;99.90;;;;;;5087799;28;20204;-81
2021/12/04 02:27:52;;;;;;;;;;;4.50;99.90;;;;;;5092738;28;20003;-90
2021/12/04 02:30:19;;;;;;;;;;;4.50;99.90;;;;;;5081762;28;19922;-82
2021/12/04 02:32:45;;;;;;;;;;;4.50;99.90;;;;;;5081745;28;19912;-85
2021/12/04 02:35:11;;;;;;;;;;;4.60;99.90;;;;;;5076075;28;19912;-81
2021/12/04 02:37:37;;;;;;;;;;;4.60;99.90;;;;;;5073971;28;19924;-82
2021/12/04 02:40:04;;;;;;;;;;;4.50;99.90;;;;;;5062056;28;20405;-83
2021/12/04 02:42:30;;;;;;;;;;;4.60;99.90;;;;;;5061907;28;19916;-79
2021/12/04 02:44:57;;;;;;;;;;;4.50;99.90;;;;;;5073731;28;19947;-93
2021/12/04 02:47:23;;;;;;;;;;;4.60;99.90;;;;;;5074072;28;20050;-81
2021/12/04 02:49:49;;;;;;;;;;;4.60;99.90;;;;;;5071840;28;20330;-80
2021/12/04 02:52:14;;;;;;;;;;;4.60;99.90;;;;;;5060051;28;19920;-93
2021/12/04 02:54:41;;;;;;;;;;;4.60;99.90;;;;;;5062736;28;19919;-88
2021/12/04 02:57:08;;;;;;;;;;;4.60;99.90;;;;;;5061953;28;19916;-82
2021/12/04 02:59:35;;;;;;;;;;;4.60;99.90;;;;;;5068643;28;19912;-81
2021/12/04 03:02:00;;;;;;;;;;;4.60;99.90;;;;;;5061855;28;19956;-92
2021/12/04 03:04:27;;;;;;;;;;;4.60;99.90;;;;;;5063237;28;20251;-94
2021/12/04 03:06:53;;;;;;;;;;;4.60;99.90;;;;;;5052873;28;20630;-87
2021/12/04 03:09:19;;;;;;;;;;;4.60;99.90;;;;;;5047977;28;19912;-94
2021/12/04 03:11:45;;;;;;;;;;;4.60;99.90;;;;;;5053970;28;20303;-82
2021/12/04 03:14:11;;;;;;;;;;;4.60;99.90;;;;;;5086556;28;19948;-83
2021/12/04 03:16:41;;;;;;;;;;;4.60;99.90;;;;;;5074198;28;19956;-82
2021/12/04 03:19:07;;;;;;;;;;;4.60;99.90;;;;;;5075814;28;19912;-90
2021/12/04 03:21:35;;;;;;;;;;;4.60;99.90;;;;;;5063991;28;19962;-84
2021/12/04 03:24:04;;;;;;;;;;;4.60;99.90;;;;;;5072104;28;20266;-81
2021/12/04 03:26:29;;;;;;;;;;;4.60;99.90;;;;;;5058411;28;19920;-81
2021/12/04 03:28:56;;;;;;;;;;;4.60;99.90;;;;;;5062204;28;19912;-79
2021/12/04 03:42:10;;;;;;;;;;;4.70;99.90;;;;;;5108293;28;19919;-91
2021/12/04 03:44:36;;;;;;;;;;;4.70;99.90;;;;;;5075418;28;19916;-92
2021/12/04 03:47:02;;;;;;;;;;;4.70;99.90;;;;;;5089421;28;20003;-81
2021/12/04 03:49:27;;;;;;;;;;;4.70;99.90;;;;;;5104999;28;19912;-88
2021/12/04 03:51:53;;;;;;;;;;;4.70;99.90;;;;;;5085118;28;20011;-81
2021/12/04 03:54:20;;;;;;;;;;;4.70;99.90;;;;;;5080090;28;19916;-84
2021/12/04 03:56:46;;;;;;;;;;;4.70;99.90;;;;;;5080267;28;19912;-88
2021/12/04 03:59:11;;;;;;;;;;;4.70;99.90;;;;;;5067237;28;19987;-91
2021/12/04 04:01:37;;;;;;;;;;;4.70;99.90;;;;;;5078401;28;19912;-93
2021/12/04 04:04:02;;;;;;;;;;;4.70;99.90;;;;;;5096277;28;19923;-95
2021/12/04 04:06:28;;;;;;;;;;;4.80;99.90;;;;;;5103022;28;19965;-86
2021/12/04 04:08:54;;;;;;;;;;;4.80;99.90;;;;;;5099075;28;19939;-81
2021/12/04 04:11:19;;;;;;;;;;;4.80;99.90;;;;;;5109933;27;20068;-83
2021/12/04 04:13:45;;;;;;;;;;;4.70;99.90;;;;;;5091376;28;19916;-82
2021/12/04 04:16:12;;;;;;;;;;;4.70;99.90;;;;;;5101254;28;19912;-82
2021/12/04 04:18:37;;;;;;;;;;;4.80;99.90;;;;;;5080384;28;19912;-82
2021/12/04 04:21:03;;;;;;;;;;;4.80;99.90;;;;;;5120719;27;19958;-83
2021/12/04 04:23:29;;;;;;;;;;;4.80;99.90;;;;;;5093216;28;19927;-92
2021/12/04 04:25:54;;;;;;;;;;;4.70;99.90;;;;;;5103155;28;19916;-92
2021/12/04 04:28:20;;;;;;;;;;;4.70;99.90;;;;;;5084479;28;19920;-80
2021/12/04 04:30:46;;;;;;;;;;;4.70;99.90;;;;;;5082242;28;20327;-83
2021/12/04 04:33:14;;;;;;;;;;;4.70;99.90;;;;;;5108386;28;19919;-95
2021/12/04 04:35:41;;;;;;;;;;;4.70;99.90;;;;;;5107118;28;19916;-84
2021/12/04 04:58:02;;;;;;;;;;;4.80;99.90;;;;;;5096435;28;19954;-92
2021/12/04 05:11:23;;;;;;;;;;;4.80;99.90;;;;;;5092546;28;20321;-91
2021/12/04 05:13:48;;;;;;;;;;;4.80;99.90;;;;;;5075834;28;19912;-87
2021/12/04 05:16:19;;;;;;;;;;;4.80;99.90;;;;;;5085433;28;19934;-85
2021/12/04 05:18:56;;;;;;;;;;;4.80;99.90;;;;;;5086900;28;19916;-82
2021/12/04 05:21:21;;;;;;;;;;;4.80;99.90;;;;;;5074785;28;20218;-81
2021/12/04 05:23:49;;;;;;;;;;;4.90;99.90;;;;;;5083795;28;19916;-92
2021/12/04 05:26:19;;;;;;;;;;;4.90;99.90;;;;;;5100469;28;19946;-93
2021/12/04 05:28:45;;;;;;;;;;;4.90;99.90;;;;;;5077543;28;19913;-87
2021/12/04 05:31:11;;;;;;;;;;;4.90;99.90;;;;;;5097101;28;19923;-81
2021/12/04 05:33:36;;;;;;;;;;;4.80;99.90;;;;;;5075943;28;19916;-89
2021/12/04 05:36:03;;;;;;;;;;;4.80;99.90;;;;;;5096454;28;19954;-81
2021/12/04 05:38:29;;;;;;;;;;;4.90;99.90;;;;;;5075992;28;19916;-91
2021/12/04 05:40:54;;;;;;;;;;;4.90;99.90;;;;;;5104005;28;20270;-89
2021/12/04 05:43:22;;;;;;;;;;;4.90;99.90;;;;;;5081844;28;19959;-84
2021/12/04 05:45:54;;;;;;;;;;;4.90;99.90;;;;;;5093454;28;19967;-81
2021/12/04 05:53:24;;;;;;;;;;;4.90;99.90;;;;;;5098799;28;19918;-94
2021/12/04 05:55:53;;;;;;;;;;;4.90;99.90;;;;;;5074923;28;19916;-89
2021/12/04 05:58:24;;;;;;;;;;;4.90;99.90;;;;;;5083981;28;19917;-93
2021/12/04 06:00:49;;;;;;;;;;;4.90;99.90;;;;;;5074245;28;19916;-92
2021/12/04 06:03:15;;;;;;;;;;;4.90;99.90;;;;;;5080441;28;19916;-91
2021/12/04 06:05:41;;;;;;;;;;;4.90;99.90;;;;;;5072404;28;20192;-91
2021/12/04 06:08:06;;;;;;;;;;;4.90;99.90;;;;;;5076357;28;19908;-92
2021/12/04 06:10:32;;;;;;;;;;;4.90;99.90;;;;;;5080439;28;19939;-90
2021/12/04 06:12:57;;;;;;;;;;;4.90;99.90;;;;;;5088585;28;19923;-93
2021/12/04 06:15:23;;;;;;;;;;;4.90;99.90;;;;;;5095493;28;19912;-89
2021/12/04 06:17:51;;;;;;;;;;;4.90;99.90;;;;;;5084733;28;19938;-92
2021/12/04 06:23:01;;;;;;;;;;;5.00;99.90;;;;;;5091083;28;20506;-94
2021/12/04 06:25:27;;;;;;;;;;;5.00;99.90;;;;;;5095233;28;19995;-93
2021/12/04 06:27:53;;;;;;;;;;;5.00;99.90;;;;;;5099772;28;19912;-94
2021/12/04 06:30:19;;;;;;;;;;;5.00;99.90;;;;;;5098687;28;19966;-90
2021/12/04 06:32:47;;;;;;;;;;;5.00;99.90;;;;;;5100317;28;20051;-80
2021/12/04 06:35:14;;;;;;;;;;;4.90;99.90;;;;;;5092077;22;20145;-94
2021/12/04 06:37:48;;;;;;;;;;;5.00;99.90;;;;;;5115436;28;19916;-90
2021/12/04 06:40:14;;;;;;;;;;;4.90;99.90;;;;;;5109469;28;20317;-91
2021/12/04 06:42:40;;;;;;;;;;;4.90;99.90;;;;;;5110042;28;19955;-95
2021/12/04 06:45:07;;;;;;;;;;;4.90;99.90;;;;;;5116584;28;19912;-94
2021/12/04 06:47:33;;;;;;;;;;;4.90;99.90;;;;;;5108465;28;19955;-89
2021/12/04 06:50:15;;;;;;;;;;;4.90;99.90;;;;;;5097828;28;20221;-82
2021/12/04 06:52:44;;;;;;;;;;;4.90;99.90;;;;;;5093998;28;19995;-94
2021/12/04 06:55:10;;;;;;;;;;;4.90;99.90;;;;;;5094008;28;19911;-93
2021/12/04 06:57:38;;;;;;;;;;;4.90;99.90;;;;;;5095143;28;19973;-94
2021/12/04 07:00:06;;;;;;;;;;;4.90;99.90;;;;;;5099798;28;19923;-91
2021/12/04 07:02:31;;;;;;;;;;;4.90;99.90;;;;;;5096438;28;19923;-84
2021/12/04 07:04:57;;;;;;;;;;;4.90;99.90;;;;;;5117989;28;19912;-96
2021/12/04 07:07:23;;;;;;;;;;;4.90;99.90;;;;;;5099527;28;19916;-94
2021/12/04 07:09:48;;;;;;;;;;;4.90;99.90;;;;;;5110115;27;20046;-90
2021/12/04 07:12:14;;;;;;;;;;;4.90;99.90;;;;;;5098666;28;19915;-83
2021/12/04 07:14:40;;;;;;;;;;;4.90;99.90;;;;;;5104463;27;20310;-85
2021/12/04 07:17:07;;;;;;;;;;;4.90;99.90;;;;;;5129972;27;19918;-92
2021/12/04 07:19:33;;;;;;;;;;;4.90;99.90;;;;;;5107768;28;19912;-94
2021/12/04 07:21:58;;;;;;;;;;;4.90;99.90;;;;;;5124592;27;20014;-96
2021/12/04 07:24:26;;;;;;;;;;;4.90;99.90;;;;;;5125264;27;19942;-84
2021/12/04 07:26:52;;;;;;;;;;;4.80;99.90;;;;;;5094510;28;19916;-90
2021/12/04 07:29:18;;;;;;;;;;;4.90;99.90;;;;;;5108009;28;19912;-88
2021/12/04 07:31:43;;;;;;;;;;;4.90;99.90;;;;;;5094052;28;19911;-93
2021/12/04 07:34:09;;;;;;;;;;;4.90;99.90;;;;;;5082744;28;19919;-95
2021/12/04 07:36:34;;;;;;;;;;;5.00;99.90;;;;;;5100426;28;20377;-94
2021/12/04 07:39:00;;;;;;;;;;;5.00;99.90;;;;;;5116095;27;19955;-91
2021/12/04 07:41:27;;;;;;;;;;;4.90;99.90;;;;;;5109235;28;19965;-96
2021/12/04 07:43:53;;;;;;;;;;;5.00;99.90;;;;;;5097809;28;19992;-88
2021/12/04 07:46:19;;;;;;;;;;;5.00;99.90;;;;;;5099225;27;19947;-93
2021/12/04 07:48:44;;;;;;;;;;;5.00;99.90;;;;;;5092225;28;19916;-93
2021/12/04 07:51:11;;;;;;;;;;;5.00;99.90;;;;;;5109528;28;19916;-84
2021/12/04 07:53:37;;;;;;;;;;;4.90;99.90;;;;;;5097413;28;20192;-90
2021/12/04 07:56:03;;;;;;;;;;;5.00;99.90;;;;;;5094634;28;19919;-93
2021/12/04 07:58:29;;;;;;;;;;;5.00;99.90;;;;;;5091802;28;19913;-94
2021/12/04 08:00:55;;;;;;;;;;;5.00;99.90;;;;;;5100666;27;19960;-83
2021/12/04 08:03:21;;;;;;;;;;;5.00;99.90;;;;;;5116770;27;19943;-94
2021/12/04 08:05:46;;;;;;;;;;;5.00;99.90;;;;;;5095493;28;19911;-92
2021/12/04 08:08:12;;;;;;;;;;;5.00;99.90;;;;;;5112413;27;19919;-88
2021/12/04 08:10:39;;;;;;;;;;;5.00;99.90;;;;;;5093946;28;20033;-92
2021/12/04 08:13:05;;;;;;;;;;;5.00;99.90;;;;;;5097622;28;19916;-87
2021/12/04 08:15:31;;;;;;;;;;;5.10;99.90;;;;;;5111519;28;19962;-94
2021/12/04 08:17:57;;;;;;;;;;;5.10;99.90;;;;;;5107724;28;19962;-81
2021/12/04 08:20:25;;;;;;;;;;;5.10;99.90;;;;;;5109356;28;19959;-92
2021/12/04 08:22:50;;;;;;;;;;;5.20;99.90;;;;;;5100276;27;20314;-95
2021/12/04 08:25:17;;;;;;;;;;;5.10;99.90;;;;;;5110297;28;19911;-85
2021/12/04 08:27:42;;;;;;;;;;;5.10;99.90;;;;;;5115652;27;19994;-88
2021/12/04 08:30:10;;;;;;;;;;;5.10;99.90;;;;;;5114281;27;20340;-94
2021/12/04 08:32:36;;;;;;;;;;;5.10;99.90;;;;;;5115751;28;20284;-82
2021/12/04 08:35:02;;;;;;;;;;;5.10;99.90;;;;;;5092761;27;19915;-80
2021/12/04 08:37:28;;;;;;;;;;;5.10;99.90;;;;;;5114675;27;19912;-80
2021/12/04 08:39:54;;;;;;;;;;;5.10;99.90;;;;;;5090663;28;19916;-81
2021/12/04 08:42:20;;;;;;;;;;;5.10;99.90;;;;;;5105173;27;19912;-96
2021/12/04 08:44:47;;;;;;;;;;;5.10;99.90;;;;;;5110722;28;20084;-82
2021/12/04 08:47:12;;;;;;;;;;;5.10;99.90;;;;;;5098501;27;20689;-92
2021/12/04 08:49:38;;;;;;;;;;;5.20;99.90;;;;;;5117362;27;20320;-78
2021/12/04 08:52:04;;;;;;;;;;;5.20;99.90;;;;;;5091663;27;19919;-89
2021/12/04 08:54:33;;;;;;;;;;;5.20;99.90;;;;;;5127353;27;19919;-96
2021/12/04 08:56:59;;;;;;;;;;;5.20;99.90;;;;;;5109367;27;19939;-94
2021/12/04 08:59:24;;;;;;;;;;;5.20;99.90;;;;;;5094098;28;20318;-80
2021/12/04 09:01:50;;;;;;;;;;;5.20;99.90;;;;;;5109467;28;19916;-79
2021/12/04 09:04:25;;;;;;;;;;;5.20;99.90;;;;;;5100417;27;19915;-93
2021/12/04 09:06:52;;;;;;;;;;;5.20;99.90;;;;;;5106364;27;19938;-95
2021/12/04 09:09:18;;;;;;;;;;;5.20;99.90;;;;;;5099917;27;20302;-80
2021/12/04 09:11:47;;;;;;;;;;;5.20;99.90;;;;;;5115542;27;20006;-93
2021/12/04 09:14:16;;;;;;;;;;;5.20;99.90;;;;;;5118055;27;19920;-79
2021/12/04 09:16:42;;;;;;;;;;;5.30;99.90;;;;;;5104110;27;19927;-80
2021/12/04 09:19:07;;;;;;;;;;;5.20;99.90;;;;;;5108787;27;20033;-79
2021/12/04 09:21:35;;;;;;;;;;;5.20;99.90;;;;;;5110737;27;19963;-95
2021/12/04 09:24:11;;;;;;;;;;;5.20;99.90;;;;;;5092227;28;20011;-86
2021/12/04 09:26:48;;;;;;;;;;;5.30;99.90;;;;;;5092358;28;20289;-86
2021/12/04 10:00:13;;;;;;;;;;;5.30;99.90;;;;;;5107187;27;19919;-92
2021/12/04 10:35:00;;;;;;;;;;;5.40;99.90;;;;;;4992689;28;19917;-78
2021/12/04 10:37:29;;;;;;;;;;;5.40;99.90;;;;;;5026215;28;20334;-80
2021/12/04 10:39:57;;;;;;;;;;;5.40;99.90;;;;;;5053783;28;19949;-93
2021/12/04 10:42:27;;;;;;;;;;;5.40;99.90;;;;;;5051512;28;20020;-80
2021/12/04 10:44:54;;;;;;;;;;;5.40;99.90;;;;;;5039635;28;19924;-84
2021/12/04 10:47:25;;;;;;;;;;;5.40;99.90;;;;;;5037545;28;19924;-83
2021/12/04 10:55:18;;;;;;;;;;;5.50;99.90;;;;;;5050183;28;19916;-79
2021/12/04 10:58:14;;;;;;;;;;;5.50;99.90;;;;;;5052493;28;19917;-79
2021/12/04 11:03:20;;;;;;;;;;;5.40;99.90;;;;;;5096626;28;19990;-79
2021/12/04 11:44:04;;;;;;;;;;;5.40;99.90;;;;;;5091785;28;20007;-86
2021/12/04 11:46:54;;;;;;;;;;;5.30;99.90;;;;;;5091960;28;19966;-89
2021/12/04 11:49:20;;;;;;;;;;;5.30;99.90;;;;;;5089112;28;20250;-79
2021/12/04 11:51:48;;;;;;;;;;;5.30;99.90;;;;;;5092194;28;19955;-78
2021/12/04 11:54:16;;;;;;;;;;;5.40;99.90;;;;;;5075922;28;19917;-79
2021/12/04 11:56:42;;;;;;;;;;;5.40;99.90;;;;;;5070191;28;19924;-79
2021/12/04 11:59:08;;;;;;;;;;;5.40;99.90;;;;;;5081671;28;19916;-87
2021/12/04 12:01:35;;;;;;;;;;;5.40;99.90;;;;;;5071085;28;20207;-79
2021/12/04 12:04:08;;;;;;;;;;;5.40;99.90;;;;;;5088872;28;20002;-80
2021/12/04 12:06:39;;;;;;;;;;;5.40;99.90;;;;;;5076610;28;19923;-81
2021/12/04 12:09:15;;;;;;;;;;;5.40;99.90;;;;;;5093796;28;19912;-93
2021/12/04 12:11:50;;;;;;;;;;;5.40;99.90;;;;;;5075794;28;20187;-91
2021/12/04 12:14:19;;;;;;;;;;;5.40;99.90;;;;;;5102435;28;19912;-92
2021/12/04 12:16:47;;;;;;;;;;;5.40;99.90;;;;;;5075593;28;19920;-80
2021/12/04 12:19:22;;;;;;;;;;;5.40;99.90;;;;;;5106602;28;19955;-80
2021/12/04 12:37:51;;;;;;;;;;;5.30;99.90;;;;;;5108159;28;20331;-85
2021/12/04 12:40:19;;;;;;;;;;;5.40;99.90;;;;;;5110417;27;20058;-78
2021/12/04 12:42:45;;;;;;;;;;;5.30;99.90;;;;;;5097473;28;19919;-79
2021/12/04 12:45:19;;;;;;;;;;;5.40;99.90;;;;;;5113691;27;20331;-78
2021/12/04 12:47:49;;;;;;;;;;;5.40;99.90;;;;;;5110624;27;19925;-80
2021/12/04 12:50:26;;;;;;;;;;;5.40;99.90;;;;;;5093617;27;20002;-80
2021/12/04 12:52:59;;;;;;;;;;;5.40;99.90;;;;;;5110103;27;19922;-80
2021/12/04 12:55:31;;;;;;;;;;;5.40;99.90;;;;;;5095522;27;19912;-79
2021/12/04 12:57:57;;;;;;;;;;;5.40;99.90;;;;;;5109680;27;19912;-79
2021/12/04 13:13:53;;;;;;;;;;;5.40;99.90;;;;;;5107974;27;20312;-83
2021/12/04 13:16:21;;;;;;;;;;;5.30;99.90;;;;;;5107972;27;19959;-88
2021/12/04 13:18:56;;;;;;;;;;;5.30;99.90;;;;;;5092033;28;19916;-90
2021/12/04 13:21:22;;;;;;;;;;;5.30;99.90;;;;;;5109840;27;19915;-85
2021/12/04 13:23:49;;;;;;;;;;;5.30;99.90;;;;;;5110802;28;19920;-81
2021/12/04 13:26:15;;;;;;;;;;;5.30;99.90;;;;;;5109894;28;19919;-88
2021/12/04 13:28:42;;;;;;;;;;;5.30;99.90;;;;;;5095841;28;19915;-91
2021/12/04 13:31:08;;;;;;;;;;;5.30;99.90;;;;;;5110531;28;19912;-86
2021/12/04 13:33:36;;;;;;;;;;;5.30;99.90;;;;;;5086309;27;19915;-81
2021/12/04 13:36:02;;;;;;;;;;;5.30;99.90;;;;;;5088961;28;19985;-86
2021/12/04 13:38:28;;;;;;;;;;;5.30;99.90;;;;;;5102739;28;19923;-89
2021/12/04 13:40:55;;;;;;;;;;;5.30;99.90;;;;;;5100590;27;19912;-83
2021/12/04 13:43:22;;;;;;;;;;;5.30;99.90;;;;;;5108270;28;19963;-89
2021/12/04 13:45:58;;;;;;;;;;;5.30;99.90;;;;;;5106062;28;20214;-89
2021/12/04 13:48:24;;;;;;;;;;;5.30;99.90;;;;;;5095789;28;19939;-89
2021/12/04 13:50:50;;;;;;;;;;;5.30;99.90;;;;;;5098470;28;20314;-89
2021/12/04 13:53:18;;;;;;;;;;;5.40;99.90;;;;;;5113681;28;20286;-90
2021/12/04 13:55:46;;;;;;;;;;;5.40;99.90;;;;;;5095757;28;20018;-89
2021/12/04 13:58:12;;;;;;;;;;;5.30;99.90;;;;;;5102859;27;19923;-90
2021/12/04 14:00:37;;;;;;;;;;;5.30;99.90;;;;;;5099875;28;19911;-90
2021/12/04 14:03:03;;;;;;;;;;;5.30;99.90;;;;;;5106101;28;20327;-89
2021/12/04 14:05:29;;;;;;;;;;;5.40;99.90;;;;;;5113803;28;20499;-93
2021/12/04 14:07:59;;;;;;;;;;;5.30;99.90;;;;;;5099141;27;20002;-93
2021/12/04 14:10:45;;;;;;;;;;;5.30;99.90;;;;;;5119590;27;20239;-93
2021/12/04 14:13:11;;;;;;;;;;;5.30;99.90;;;;;;5092774;28;19957;-93
2021/12/04 14:15:41;;;;;;;;;;;5.30;99.90;;;;;;5115390;27;19912;-95
2021/12/04 14:18:08;;;;;;;;;;;5.30;99.90;;;;;;5100841;27;19911;-93
2021/12/04 14:20:35;;;;;;;;;;;5.40;99.90;;;;;;5120249;27;20053;-94
2021/12/04 14:23:01;;;;;;;;;;;5.40;99.90;;;;;;5111879;28;20362;-94
2021/12/04 14:25:28;;;;;;;;;;;5.40;99.90;;;;;;5110919;28;19998;-95
2021/12/04 14:27:54;;;;;;;;;;;5.40;99.90;;;;;;5115295;28;19919;-94
2021/12/04 14:30:35;;;;;;;;;;;5.40;99.90;;;;;;5114949;28;19915;-95
2021/12/04 14:33:05;;;;;;;;;;;5.40;99.90;;;;;;5097412;28;19912;-94
2021/12/04 14:35:35;;;;;;;;;;;5.40;99.90;;;;;;5107799;28;19916;-92
2021/12/04 14:38:02;;;;;;;;;;;5.40;99.90;;;;;;5105859;28;19919;-95
2021/12/04 14:40:33;;;;;;;;;;;5.50;99.90;;;;;;5074594;28;20612;-95
2021/12/04 14:42:59;;;;;;;;;;;5.50;99.90;;;;;;5097053;28;20328;-95
2021/12/04 14:45:28;;;;;;;;;;;5.50;99.90;;;;;;5116416;28;19943;-96
2021/12/04 14:48:01;;;;;;;;;;;5.50;99.90;;;;;;5097399;28;20281;-91
2021/12/04 14:50:26;;;;;;;;;;;5.50;99.90;;;;;;5114293;28;19916;-93
2021/12/04 14:52:54;;;;;;;;;;;5.50;99.90;;;;;;5098612;28;19922;-88
2021/12/04 14:55:20;;;;;;;;;;;5.50;99.90;;;;;;5120511;28;19912;-90
2021/12/04 14:57:46;;;;;;;;;;;5.40;99.90;;;;;;5114549;28;19915;-93
2021/12/04 15:00:11;;;;;;;;;;;5.40;99.90;;;;;;5099085;28;19922;-96
2021/12/04 15:02:37;;;;;;;;;;;5.30;99.90;;;;;;5112654;28;19963;-93
2021/12/04 15:05:04;;;;;;;;;;;5.30;99.90;;;;;;5101114;28;19927;-76
2021/12/04 15:07:32;;;;;;;;;;;5.20;99.90;;;;;;5117241;28;19937;-95
2021/12/04 15:09:58;;;;;;;;;;;5.20;99.90;;;;;;5098483;28;19912;-96
2021/12/04 15:12:31;;;;;;;;;;;5.20;99.90;;;;;;5121148;28;20230;-95
2021/12/04 15:14:59;;;;;;;;;;;5.20;99.90;;;;;;5101071;28;19915;-96
2021/12/04 15:17:25;;;;;;;;;;;5.30;99.90;;;;;;5117112;28;19912;-95
2021/12/04 15:19:53;;;;;;;;;;;5.40;99.90;;;;;;5098498;28;19919;-92
2021/12/04 15:22:39;;;;;;;;;;;5.40;99.90;;;;;;5092054;28;19920;-93
2021/12/04 15:25:08;;;;;;;;;;;5.30;99.90;;;;;;5082271;28;19942;-92
2021/12/04 15:27:33;;;;;;;;;;;5.20;99.90;;;;;;5112605;28;19916;-92
2021/12/04 15:29:59;;;;;;;;;;;5.20;99.90;;;;;;5114150;28;19919;-94
2021/12/04 15:32:26;;;;;;;;;;;5.20;99.90;;;;;;5095709;28;19995;-95
2021/12/04 15:35:07;;;;;;;;;;;5.20;99.90;;;;;;5111744;28;19920;-85
2021/12/04 15:37:38;;;;;;;;;;;5.20;99.90;;;;;;5075539;28;19916;-93
2021/12/04 15:40:05;;;;;;;;;;;5.20;99.90;;;;;;5091119;28;19924;-91
2021/12/04 15:42:42;;;;;;;;;;;5.10;99.90;;;;;;5089676;28;19920;-93
2021/12/04 15:48:03;;;;;;;;;;;5.10;99.90;;;;;;5087608;28;19923;-93
2021/12/04 15:53:25;;;;;;;;;;;5.10;99.90;;;;;;5059940;28;19919;-92
2021/12/04 15:55:54;;;;;;;;;;;5.10;99.90;;;;;;5088432;28;19916;-94
2021/12/04 15:58:21;;;;;;;;;;;5.20;99.90;;;;;;5086395;28;19908;-95
2021/12/04 16:00:55;;;;;;;;;;;5.10;99.90;;;;;;5096834;28;20031;-93
2021/12/04 16:03:21;;;;;;;;;;;5.10;99.90;;;;;;5077047;28;19923;-76
2021/12/04 16:05:49;;;;;;;;;;;5.10;99.90;;;;;;5091469;28;19959;-87
2021/12/04 16:08:18;;;;;;;;;;;5.10;99.90;;;;;;5078951;28;19919;-93
2021/12/04 16:10:45;;;;;;;;;;;5.10;99.90;;;;;;5103836;28;19916;-77
2021/12/04 16:13:14;;;;;;;;;;;5.10;99.90;;;;;;5091599;28;19912;-95
2021/12/04 16:15:40;;;;;;;;;;;5.00;99.90;;;;;;5091446;28;19920;-93
2021/12/04 16:18:06;;;;;;;;;;;5.00;99.90;;;;;;5105879;28;19958;-94
2021/12/04 16:20:33;;;;;;;;;;;5.00;99.90;;;;;;5096585;28;19920;-77
2021/12/04 16:22:59;;;;;;;;;;;5.00;99.90;;;;;;5106011;28;19916;-90
2021/12/04 16:25:27;;;;;;;;;;;5.10;99.90;;;;;;5078823;28;19908;-94
2021/12/04 16:36:25;;;;;;;;;;;5.00;99.90;;;;;;5025132;28;20510;-79
2021/12/04 16:38:51;;;;;;;;;;;5.10;99.90;;;;;;5027302;28;19992;-81
2021/12/04 16:41:19;;;;;;;;;;;5.00;99.90;;;;;;5025993;28;20323;-77
2021/12/04 16:43:46;;;;;;;;;;;5.00;99.90;;;;;;5021711;28;19927;-77
2021/12/04 16:46:14;;;;;;;;;;;5.00;99.90;;;;;;5037870;28;19913;-76
2021/12/04 16:48:45;;;;;;;;;;;4.90;99.90;;;;;;5038237;28;20241;-91
2021/12/04 16:59:19;;;;;;;;;;;4.90;99.90;;;;;;5032483;28;20488;-77
2021/12/04 17:01:47;;;;;;;;;;;4.90;99.90;;;;;;5031224;28;20010;-89
2021/12/04 17:04:13;;;;;;;;;;;4.80;99.90;;;;;;5030973;28;19921;-77
2021/12/04 17:06:40;;;;;;;;;;;4.80;99.90;;;;;;5034005;28;20375;-78
2021/12/04 17:09:06;;;;;;;;;;;4.80;99.90;;;;;;5090443;28;19931;-89
2021/12/04 17:11:32;;;;;;;;;;;4.80;99.90;;;;;;5092562;28;19919;-89
2021/12/04 17:13:57;;;;;;;;;;;4.70;99.90;;;;;;5076177;28;20024;-77
2021/12/04 17:16:29;;;;;;;;;;;4.60;99.90;;;;;;5099774;28;19912;-77
2021/12/04 17:19:01;;;;;;;;;;;4.60;99.90;;;;;;5090772;28;19920;-83
2021/12/04 17:21:30;;;;;;;;;;;4.50;99.90;;;;;;5073837;28;19919;-82
2021/12/04 17:23:57;;;;;;;;;;;4.40;99.90;;;;;;5088743;28;20019;-84
2021/12/04 17:26:23;;;;;;;;;;;4.30;99.90;;;;;;5070890;28;19916;-79
2021/12/04 17:28:49;;;;;;;;;;;4.30;99.90;;;;;;5074939;28;19916;-86
2021/12/04 17:31:18;;;;;;;;;;;4.30;99.90;;;;;;5094698;28;20306;-78
2021/12/04 17:33:46;;;;;;;;;;;4.30;99.90;;;;;;5074311;28;20031;-77
2021/12/04 17:36:13;;;;;;;;;;;4.20;99.90;;;;;;5075176;28;19919;-76
2021/12/04 17:38:43;;;;;;;;;;;4.20;99.90;;;;;;5071577;28;19925;-88
2021/12/04 17:41:12;;;;;;;;;;;4.20;99.90;;;;;;5091234;28;19982;-87
2021/12/04 17:43:40;;;;;;;;;;;4.20;99.90;;;;;;5093020;28;19956;-76
2021/12/04 17:46:06;;;;;;;;;;;4.20;99.90;;;;;;5071187;28;19926;-77
2021/12/04 17:48:32;;;;;;;;;;;4.20;99.90;;;;;;5090419;28;20006;-77
2021/12/04 17:50:59;;;;;;;;;;;4.30;99.90;;;;;;5090991;28;20401;-76
2021/12/04 17:53:26;;;;;;;;;;;4.30;99.90;;;;;;5061415;28;19920;-90
2021/12/04 17:55:52;;;;;;;;;;;4.30;99.90;;;;;;5081734;28;19916;-92
2021/12/04 17:58:18;;;;;;;;;;;4.40;99.90;;;;;;5073768;28;19931;-92
2021/12/04 18:00:48;;;;;;;;;;;4.40;99.90;;;;;;5090757;28;19920;-87
2021/12/04 18:03:15;;;;;;;;;;;4.50;99.90;;;;;;5069967;28;20317;-90
2021/12/04 18:05:41;;;;;;;;;;;4.50;99.90;;;;;;5071983;28;20006;-77
2021/12/04 18:08:09;;;;;;;;;;;4.50;99.90;;;;;;5091971;28;19912;-93
2021/12/04 18:10:36;;;;;;;;;;;4.50;99.90;;;;;;5091219;28;19944;-91
2021/12/04 18:13:04;;;;;;;;;;;4.60;99.90;;;;;;5092264;28;19916;-90